createdAt,value
2019-02-09T00:02:59.691Z,51.63
2019-02-09T00:08:07.157Z,48.65
2019-02-09T00:13:12.432Z,49.95
2019-02-09T00:18:17.680Z,49.65
2019-02-09T00:23:22.935Z,48.65
2019-02-09T00:28:28.226Z,47.53
2019-02-09T00:33:33.490Z,45.30
2019-02-09T00:38:38.753Z,46.77
2019-02-09T00:43:43.999Z,43.87
2019-02-09T00:48:49.218Z,47.58
2019-02-09T00:53:54.489Z,47.87
2019-02-09T00:58:59.752Z,39.90
2019-02-09T01:04:05.003Z,45.43
2019-02-09T01:09:12.942Z,48.60
2019-02-09T01:14:18.206Z,43.13
2019-02-09T01:19:23.465Z,50.33
2019-02-09T01:24:28.725Z,46.20
2019-02-09T01:29:34.030Z,47.85
2019-02-09T01:34:39.252Z,49.07
2019-02-09T01:39:44.517Z,44.88
2019-02-09T01:44:49.778Z,47.10
2019-02-09T01:49:55.111Z,42.85
2019-02-09T01:55:00.393Z,45.03
2019-02-09T02:00:14.488Z,45.83
2019-02-09T02:05:21.495Z,46.05
2019-02-09T02:10:34.587Z,44.23
2019-02-09T02:15:40.558Z,42.70
2019-02-09T02:20:45.886Z,40.30
2019-02-09T02:25:51.137Z,39.60
2019-02-09T02:30:56.383Z,37.90
2019-02-09T02:36:01.626Z,33.70
2019-02-09T02:41:06.868Z,36.10
2019-02-09T02:46:12.099Z,36.60
2019-02-09T02:51:17.604Z,34.27
2019-02-09T02:56:22.862Z,36.15
2019-02-09T03:01:28.874Z,36.15
2019-02-09T03:06:34.148Z,33.42
2019-02-09T03:11:39.410Z,32.75
2019-02-09T03:16:44.729Z,33.50
2019-02-09T03:21:49.966Z,31.40
2019-02-09T03:26:55.219Z,29.90
2019-02-09T03:32:00.526Z,31.48
2019-02-09T03:37:05.790Z,32.35
2019-02-09T03:42:11.083Z,33.65
2019-02-09T03:47:16.358Z,32.40
2019-02-09T03:52:21.619Z,32.88
2019-02-09T03:57:27.116Z,29.67
2019-02-09T04:02:32.421Z,29.85
2019-02-09T04:07:37.686Z,26.77
2019-02-09T04:12:42.996Z,26.85
2019-02-09T04:17:48.281Z,28.77
2019-02-09T04:22:53.507Z,28.27
2019-02-09T04:27:58.894Z,28.25
2019-02-09T04:33:04.353Z,27.15
2019-02-09T04:38:09.576Z,28.73
2019-02-09T04:43:14.824Z,28.90
2019-02-09T04:48:20.080Z,26.25
2019-02-09T04:53:25.668Z,27.60
2019-02-09T04:58:31.060Z,26.90
2019-02-09T05:03:36.400Z,30.10
2019-02-09T05:08:41.662Z,27.30
2019-02-09T05:13:48.089Z,31.20
2019-02-09T05:18:53.316Z,27.10
2019-02-09T05:23:58.644Z,29.65
2019-02-09T05:29:03.900Z,26.77
2019-02-09T05:34:09.218Z,26.97
2019-02-09T05:39:14.473Z,32.40
2019-02-09T05:44:19.704Z,30.92
2019-02-09T05:49:25.092Z,30.27
2019-02-09T05:54:30.523Z,29.55
2019-02-09T05:59:35.783Z,29.20
2019-02-09T06:04:41.043Z,29.67
2019-02-09T06:09:46.292Z,27.03
2019-02-09T06:14:51.554Z,30.45
2019-02-09T06:19:56.847Z,31.82
2019-02-09T06:25:02.094Z,29.70
2019-02-09T06:30:13.481Z,32.28
2019-02-09T06:35:18.744Z,30.32
2019-02-09T06:40:24.519Z,26.45
2019-02-09T06:45:29.865Z,24.55
2019-02-09T06:50:35.122Z,24.57
2019-02-09T06:55:40.387Z,25.02
2019-02-09T07:00:45.722Z,18.45
2019-02-09T07:05:50.981Z,18.60
2019-02-09T07:10:56.247Z,19.92
2019-02-09T07:16:01.512Z,27.32
2019-02-09T07:21:06.759Z,24.52
2019-02-09T07:26:12.016Z,21.35
2019-02-09T07:31:17.280Z,27.93
2019-02-09T07:36:22.537Z,23.05
2019-02-09T07:41:27.787Z,25.60
2019-02-09T07:46:33.156Z,23.18
2019-02-09T07:51:38.766Z,26.60
2019-02-09T07:56:44.031Z,29.02
2019-02-09T08:01:49.271Z,33.73
2019-02-09T08:06:54.537Z,31.55
2019-02-09T08:11:59.939Z,30.72
2019-02-09T08:17:05.255Z,34.83
2019-02-09T08:22:10.526Z,30.12
2019-02-09T08:27:23.296Z,30.92
2019-02-09T08:32:22.657Z,31.73
2019-02-09T08:37:28.067Z,30.43
2019-02-09T08:42:33.311Z,18.20
2019-02-09T08:47:38.560Z,24.13
2019-02-09T08:52:43.806Z,16.50
2019-02-09T08:57:49.220Z,23.87
2019-02-09T09:02:55.507Z,23.27
2019-02-09T09:08:01.015Z,25.72
2019-02-09T09:13:06.283Z,23.65
2019-02-09T09:18:11.562Z,15.25
2019-02-09T09:23:16.833Z,21.12
2019-02-09T09:28:22.103Z,28.30
2019-02-09T09:33:27.433Z,25.10
2019-02-09T09:38:32.688Z,25.30
2019-02-09T09:43:37.957Z,26.27
2019-02-09T09:48:43.228Z,21.48
2019-02-09T09:53:48.500Z,20.12
2019-02-09T09:58:53.808Z,21.25
2019-02-09T10:03:59.063Z,20.68
2019-02-09T10:09:06.664Z,19.87
2019-02-09T10:14:11.968Z,19.70
2019-02-09T10:19:17.209Z,22.30
2019-02-09T10:24:22.482Z,21.57
2019-02-09T10:29:27.755Z,23.00
2019-02-09T10:34:33.009Z,23.60
2019-02-09T10:39:38.273Z,20.92
2019-02-09T10:44:43.529Z,21.65
2019-02-09T10:49:48.806Z,24.67
2019-02-09T10:54:54.122Z,25.43
2019-02-09T10:59:59.481Z,17.62
2019-02-09T11:05:05.953Z,24.10
2019-02-09T11:10:22.214Z,22.58
2019-02-09T11:15:27.546Z,21.57
2019-02-09T11:20:32.811Z,24.82
2019-02-09T11:25:38.103Z,22.15
2019-02-09T11:30:43.508Z,22.98
2019-02-09T11:35:48.819Z,24.43
2019-02-09T11:40:54.079Z,25.43
2019-02-09T11:45:59.354Z,24.52
2019-02-09T11:51:04.634Z,24.30
2019-02-09T11:56:10.163Z,24.87
2019-02-09T12:01:15.611Z,26.82
2019-02-09T12:06:20.883Z,23.98
2019-02-09T12:11:26.158Z,22.02
2019-02-09T12:16:31.420Z,23.05
2019-02-09T12:21:36.690Z,22.25
2019-02-09T12:26:42.035Z,21.73
2019-02-09T12:31:47.417Z,20.12
2019-02-09T12:36:52.706Z,20.30
2019-02-09T12:41:57.975Z,18.80
2019-02-09T12:47:03.283Z,15.70
2019-02-09T12:52:08.592Z,17.12
2019-02-09T12:57:13.792Z,16.75
2019-02-09T13:02:19.116Z,15.90
2019-02-09T13:07:24.450Z,16.50
2019-02-09T13:12:30.655Z,16.77
2019-02-09T13:17:35.913Z,16.15
2019-02-09T13:22:41.186Z,16.85
2019-02-09T13:27:46.453Z,15.60
2019-02-09T13:32:51.762Z,15.30
2019-02-09T13:37:57.034Z,15.40
2019-02-09T13:43:02.287Z,15.30
2019-02-09T13:48:07.679Z,17.57
2019-02-09T13:53:13.228Z,15.80
2019-02-09T13:58:18.450Z,15.38
2019-02-09T14:03:23.731Z,15.05
2019-02-09T14:08:29.007Z,14.45
2019-02-09T14:13:34.277Z,14.87
2019-02-09T14:18:39.553Z,13.45
2019-02-09T14:23:44.815Z,14.70
2019-02-09T14:28:50.191Z,13.70
2019-02-09T14:33:55.508Z,14.75
2019-02-09T14:39:00.733Z,15.28
2019-02-09T14:44:06.098Z,15.88
2019-02-09T14:49:11.455Z,14.23
2019-02-09T14:54:16.726Z,13.65
2019-02-09T14:59:21.898Z,12.40
2019-02-09T15:04:27.255Z,12.23
2019-02-09T15:09:32.523Z,12.80
2019-02-09T15:14:37.858Z,12.68
2019-02-09T15:19:43.111Z,10.25
2019-02-09T15:24:48.378Z,12.68
2019-02-09T15:29:53.653Z,15.32
2019-02-09T15:34:58.906Z,16.42
2019-02-09T15:40:07.261Z,14.98
2019-02-09T15:45:15.214Z,16.67
2019-02-09T15:50:20.469Z,16.82
2019-02-09T15:55:25.696Z,18.23
2019-02-09T16:00:32.575Z,17.70
2019-02-09T16:05:37.867Z,17.73
2019-02-09T16:10:43.130Z,16.62
2019-02-09T16:15:48.406Z,20.15
2019-02-09T16:20:53.667Z,19.75
2019-02-09T16:25:59.013Z,20.92
2019-02-09T16:31:05.510Z,20.17
2019-02-09T16:36:10.775Z,20.40
2019-02-09T16:41:16.043Z,21.25
2019-02-09T16:46:21.323Z,20.35
2019-02-09T16:51:26.510Z,19.73
2019-02-09T16:56:31.751Z,21.82
2019-02-09T17:01:37.019Z,21.97
2019-02-09T17:06:42.484Z,21.57
2019-02-09T17:11:47.735Z,21.93
2019-02-09T17:16:52.997Z,22.00
2019-02-09T17:21:58.279Z,21.62
2019-02-09T17:27:03.546Z,22.93
2019-02-09T17:32:08.794Z,24.92
2019-02-09T17:37:14.070Z,25.43
2019-02-09T17:42:19.340Z,28.25
2019-02-09T17:47:24.615Z,26.37
2019-02-09T17:52:29.871Z,26.17
2019-02-09T17:57:35.128Z,28.32
2019-02-09T18:02:40.458Z,27.17
2019-02-09T18:07:45.694Z,29.57
2019-02-09T18:12:50.954Z,28.80
2019-02-09T18:17:56.143Z,29.27
2019-02-09T18:23:01.427Z,51.73
2019-02-09T18:28:07.841Z,28.38
2019-02-09T18:33:14.671Z,27.65
2019-02-09T18:38:20.036Z,29.90
2019-02-09T18:43:25.321Z,25.50
2019-02-09T18:48:30.594Z,27.98
2019-02-09T18:53:35.850Z,30.80
2019-02-09T18:58:41.124Z,26.60
2019-02-09T19:03:46.403Z,28.98
2019-02-09T19:08:52.805Z,27.75
2019-02-09T19:13:58.207Z,28.87
2019-02-09T19:19:03.541Z,28.80
2019-02-09T19:24:09.170Z,27.10
2019-02-09T19:29:14.436Z,27.10
2019-02-09T19:34:19.695Z,26.37
2019-02-09T19:39:24.938Z,22.58
2019-02-09T19:44:30.218Z,23.80
2019-02-09T19:49:35.477Z,26.02
2019-02-09T19:54:40.736Z,25.48
2019-02-09T19:59:46.078Z,24.05
2019-02-09T20:04:51.348Z,24.55
2019-02-09T20:09:57.659Z,25.43
2019-02-09T20:15:02.987Z,25.80
2019-02-09T20:20:16.867Z,20.70
2019-02-09T20:25:28.526Z,25.32
2019-02-09T20:30:38.032Z,24.30
2019-02-09T20:35:43.306Z,25.48
2019-02-09T20:40:58.272Z,26.00
2019-02-09T20:46:03.578Z,24.00
2019-02-09T20:51:08.856Z,23.70
2019-02-09T20:56:14.112Z,22.77
2019-02-09T21:01:19.393Z,23.98
2019-02-09T21:06:24.722Z,23.52
2019-02-09T21:11:29.999Z,22.25
2019-02-09T21:16:35.285Z,24.37
2019-02-09T21:21:41.243Z,21.42
2019-02-09T21:26:46.498Z,23.98
2019-02-09T21:31:51.789Z,23.47
2019-02-09T21:36:57.018Z,24.45
2019-02-09T21:42:02.269Z,23.25
2019-02-09T21:47:07.917Z,22.93
2019-02-09T21:52:13.179Z,24.60
2019-02-09T21:57:18.418Z,21.82
2019-02-09T22:02:23.654Z,24.92
2019-02-09T22:07:28.937Z,23.52
2019-02-09T22:12:34.258Z,21.48
2019-02-09T22:17:39.527Z,22.48
2019-02-09T22:22:44.750Z,22.95
2019-02-09T22:27:50.078Z,25.10
2019-02-09T22:32:56.749Z,23.38
2019-02-09T22:38:02.122Z,22.75
2019-02-09T22:43:07.639Z,24.43
2019-02-09T22:48:12.900Z,23.52
2019-02-09T22:53:18.167Z,22.73
2019-02-09T22:58:23.430Z,24.23
2019-02-09T23:03:48.434Z,22.98
2019-02-09T23:08:56.132Z,23.40
2019-02-09T23:14:01.390Z,23.35
2019-02-09T23:19:06.650Z,22.95
2019-02-09T23:24:12.164Z,21.27
2019-02-09T23:29:17.685Z,22.17
2019-02-09T23:34:23.354Z,23.87
2019-02-09T23:39:28.580Z,23.18
2019-02-09T23:44:33.842Z,23.20
2019-02-09T23:49:39.080Z,23.70
2019-02-09T23:54:44.334Z,22.10
2019-02-09T23:59:49.605Z,20.05
